Overview Statistics Trail Chart Weather Telemetry Raw packets
 

This is the latest recevied weather packets stored in our database for station/object IZ1HMT-3. If no packets are shown the sender has not sent any weather packets the latest 10 day(s).

<< 16 17 18 19 20 21 22 >>
Time Temp. Humidity Pressure Rain* Wind** Luminosity Snow
1788116960 27.78° C 55% 1015.6 hPa - - - -
1788116357 28.33° C 54% 1015.5 hPa - - - -
1788115753 28.33° C 54% 1015.4 hPa - - - -
1788114545 28.89° C 54% 1015.2 hPa - - - -
1788113941 28.89° C 53% 1015 hPa - - - -
1788113337 29.44° C 52% 1015 hPa - - - -
1788112128 29.44° C 51% 1014.9 hPa - - - -
1788111524 30° C 50% 1014.9 hPa - - - -
1788110920 30° C 49% 1014.9 hPa - - - -
1788110316 30° C 49% 1014.8 hPa - - - -
1788109712 30° C 49% 1014.9 hPa - - - -
1788109108 30° C 48% 1015 hPa - - - -
1788104879 30.56° C 51% 1014.9 hPa - - - -
1788103068 30.56° C 50% 1015 hPa - - - -
1788102464 30.56° C 50% 1015.1 hPa - - - -
1788101861 30.56° C 51% 1015.1 hPa - - - -
1788100653 30.56° C 50% 1015.2 hPa - - - -
1788099451 31.11° C 50% 1015.2 hPa - - - -
1788098843 31.67° C 49% 1015.2 hPa - - - -
1788097635 32.78° C 46% 1015.4 hPa - - - -
1788097031 32.78° C 45% 1015.5 hPa - - - -
1788096428 33.89° C 43% 1015.5 hPa - - - -
1788095825 31.11° C 49% 1015.6 hPa - - - -
1788095220 31.11° C 50% 1015.7 hPa - - - -
1788094617 31.11° C 48% 1015.7 hPa - - - -

* Rain since midnight (hover to see other rain measurements)
** Current wind speed in m/s (hover to see current wind gust speed)